Time;durP1;ratioP1;P1;durP2;ratioP2;P2;SDS_P1;SDS_P2;PMS_P1;PMS_P2;Temp;Humidity;BMP_temperature;BMP_pressure;BME280_temperature;BME280_humidity;BME280_pressure;Samples;Min_cycle;Max_cycle;Signal;HPM_P1;HPM_P2
2021/12/18 00:00:08;;;;;;;135.43;25.70;;;;;;;;;;4962276;28;20109;-69
2021/12/18 00:02:33;;;;;;;56.40;23.92;;;;;;;;;;4963230;28;20498;-69
2021/12/18 00:04:59;;;;;;;42.53;22.27;;;;;;;;;;4963379;28;20039;-70
2021/12/18 00:07:24;;;;;;;81.68;26.30;;;;;;;;;;4962761;28;20030;-69
2021/12/18 00:09:52;;;;;;;51.75;22.90;;;;;;;;;;4963865;28;20035;-69
2021/12/18 00:12:17;;;;;;;46.08;23.90;;;;;;;;;;4963026;28;20078;-69
2021/12/18 00:14:43;;;;;;;66.57;24.73;;;;;;;;;;4963614;28;20035;-70
2021/12/18 00:17:08;;;;;;;46.88;23.17;;;;;;;;;;4963912;28;20023;-69
2021/12/18 00:19:34;;;;;;;50.80;24.55;;;;;;;;;;4976673;28;20367;-69
2021/12/18 00:22:00;;;;;;;55.17;25.27;;;;;;;;;;4961798;28;20057;-69
2021/12/18 00:24:25;;;;;;;53.40;25.40;;;;;;;;;;4962431;28;20023;-70
2021/12/18 00:26:50;;;;;;;53.92;26.05;;;;;;;;;;4962879;28;20027;-69
2021/12/18 00:29:16;;;;;;;47.35;23.15;;;;;;;;;;4966727;28;20027;-69
2021/12/18 00:31:41;;;;;;;47.80;24.08;;;;;;;;;;4961516;28;20121;-69
2021/12/18 00:34:06;;;;;;;42.05;22.45;;;;;;;;;;4962963;28;20113;-69
2021/12/18 00:36:32;;;;;;;49.22;26.00;;;;;;;;;;4963066;28;20270;-70
2021/12/18 00:38:57;;;;;;;40.35;21.83;;;;;;;;;;4961520;28;20805;-69
2021/12/18 00:44:07;;;;;;;56.35;23.33;;;;;;;;;;4962394;28;20029;-70
2021/12/18 00:46:37;;;;;;;60.40;24.42;;;;;;;;;;4961865;28;20038;-70
2021/12/18 00:49:04;;;;;;;44.90;23.92;;;;;;;;;;4961172;28;20042;-69
2021/12/18 00:51:29;;;;;;;67.75;23.70;;;;;;;;;;4962886;28;20038;-69
2021/12/18 00:53:54;;;;;;;55.60;25.25;;;;;;;;;;4962334;28;20053;-69
2021/12/18 00:56:20;;;;;;;254.63;25.95;;;;;;;;;;4962264;28;20049;-69
2021/12/18 00:58:46;;;;;;;45.00;22.70;;;;;;;;;;4962825;28;20087;-69
2021/12/18 01:01:12;;;;;;;118.75;24.65;;;;;;;;;;4959952;28;20573;-69
2021/12/18 01:03:39;;;;;;;52.40;22.13;;;;;;;;;;4961829;28;20117;-69
2021/12/18 01:06:04;;;;;;;44.80;21.45;;;;;;;;;;4961882;28;20057;-69
2021/12/18 01:08:30;;;;;;;78.53;22.30;;;;;;;;;;4962032;28;20474;-70
2021/12/18 01:13:38;;;;;;;63.50;23.92;;;;;;;;;;4962332;28;20038;-70
2021/12/18 01:16:12;;;;;;;77.93;25.55;;;;;;;;;;4961707;28;20580;-69
2021/12/18 01:24:06;;;;;;;43.13;20.55;;;;;;;;;;4961161;28;20105;-69
2021/12/18 01:26:32;;;;;;;206.90;26.80;;;;;;;;;;4961466;28;20041;-70
2021/12/18 01:28:57;;;;;;;97.05;24.67;;;;;;;;;;4960702;28;20023;-70
2021/12/18 01:31:22;;;;;;;215.93;28.92;;;;;;;;;;4960732;28;20114;-69
2021/12/18 01:33:48;;;;;;;85.25;26.13;;;;;;;;;;4961769;28;20062;-70
2021/12/18 01:36:13;;;;;;;53.10;24.70;;;;;;;;;;4961428;28;20074;-69
2021/12/18 01:38:38;;;;;;;58.30;23.55;;;;;;;;;;4961530;28;20019;-70
2021/12/18 01:41:04;;;;;;;75.65;26.42;;;;;;;;;;4961021;28;20049;-69
2021/12/18 01:51:44;;;;;;;171.63;25.20;;;;;;;;;;4960674;28;20371;-69
2021/12/18 01:54:07;;;;;;;76.47;23.42;;;;;;;;;;4960742;28;20116;-69
2021/12/18 01:56:32;;;;;;;85.78;25.40;;;;;;;;;;4961879;28;20031;-70
2021/12/18 01:58:57;;;;;;;59.05;24.80;;;;;;;;;;4962128;28;20030;-71
2021/12/18 02:01:22;;;;;;;126.32;26.77;;;;;;;;;;4959804;28;20034;-71
2021/12/18 02:03:48;;;;;;;156.27;27.17;;;;;;;;;;4961006;28;20621;-70
2021/12/18 02:06:13;;;;;;;129.13;25.80;;;;;;;;;;4960347;28;20122;-71
2021/12/18 02:08:39;;;;;;;78.78;25.33;;;;;;;;;;4959518;28;20034;-71
2021/12/18 02:11:13;;;;;;;53.22;24.25;;;;;;;;;;4959769;28;20378;-70
2021/12/18 02:14:10;;;;;;;52.40;24.88;;;;;;;;;;4961244;28;20029;-71
2021/12/18 02:21:54;;;;;;;76.93;25.95;;;;;;;;;;4959074;28;20049;-71
2021/12/18 02:24:22;;;;;;;92.55;26.33;;;;;;;;;;4959891;28;20023;-71
2021/12/18 02:26:48;;;;;;;176.85;26.83;;;;;;;;;;4961056;28;20572;-71
2021/12/18 02:29:15;;;;;;;155.80;28.05;;;;;;;;;;4960270;28;20035;-71
2021/12/18 02:31:41;;;;;;;79.18;25.60;;;;;;;;;;4959605;28;20409;-71
2021/12/18 02:34:14;;;;;;;119.50;24.10;;;;;;;;;;4959944;28;20027;-71
2021/12/18 02:36:46;;;;;;;370.33;29.75;;;;;;;;;;4958831;28;20066;-71
2021/12/18 02:39:26;;;;;;;179.48;26.70;;;;;;;;;;4959852;28;20046;-71
2021/12/18 02:42:13;;;;;;;190.48;27.73;;;;;;;;;;4960120;28;20494;-71
2021/12/18 02:44:39;;;;;;;58.33;25.27;;;;;;;;;;4960349;28;20054;-71
2021/12/18 02:47:05;;;;;;;93.88;22.83;;;;;;;;;;4944429;28;20034;-71
2021/12/18 02:49:31;;;;;;;154.18;23.05;;;;;;;;;;4960919;28;20084;-71
2021/12/18 02:51:56;;;;;;;68.38;25.02;;;;;;;;;;4959216;28;20031;-71
2021/12/18 02:54:21;;;;;;;69.00;22.45;;;;;;;;;;4960467;28;20057;-71
2021/12/18 02:56:47;;;;;;;185.13;22.35;;;;;;;;;;4959801;28;20062;-71
2021/12/18 02:59:12;;;;;;;277.80;23.85;;;;;;;;;;4944086;28;20065;-70
2021/12/18 03:01:38;;;;;;;67.00;20.08;;;;;;;;;;4962388;28;20058;-71
2021/12/18 03:04:14;;;;;;;115.10;21.45;;;;;;;;;;4965261;28;20030;-71
2021/12/18 03:06:43;;;;;;;61.60;18.98;;;;;;;;;;4963766;28;20117;-71
2021/12/18 03:25:18;;;;;;;111.50;19.42;;;;;;;;;;4964325;28;20848;-70
2021/12/18 03:27:43;;;;;;;97.40;19.83;;;;;;;;;;4963093;28;20031;-70
2021/12/18 03:30:09;;;;;;;45.60;18.13;;;;;;;;;;4961465;28;20024;-70
2021/12/18 03:32:34;;;;;;;73.85;19.30;;;;;;;;;;4963662;28;20436;-70
2021/12/18 03:34:59;;;;;;;64.07;19.70;;;;;;;;;;4963850;28;20054;-70
2021/12/18 03:37:25;;;;;;;51.20;18.73;;;;;;;;;;4964574;28;20069;-70
2021/12/18 03:39:50;;;;;;;58.92;20.65;;;;;;;;;;4963327;28;20095;-70
2021/12/18 03:42:16;;;;;;;80.10;18.60;;;;;;;;;;4963980;28;20119;-69
2021/12/18 03:44:41;;;;;;;39.63;17.65;;;;;;;;;;4947375;28;20461;-70
2021/12/18 03:47:06;;;;;;;58.88;20.13;;;;;;;;;;4959543;28;20625;-70
2021/12/18 03:49:32;;;;;;;97.88;18.70;;;;;;;;;;4962598;28;20046;-70
2021/12/18 03:51:57;;;;;;;53.28;18.20;;;;;;;;;;4961545;28;20038;-70
2021/12/18 03:54:23;;;;;;;41.95;16.38;;;;;;;;;;4961175;28;20120;-70
2021/12/18 03:56:48;;;;;;;77.97;18.67;;;;;;;;;;4963175;28;20058;-69
2021/12/18 03:59:13;;;;;;;83.43;18.45;;;;;;;;;;4962802;28;20114;-70
2021/12/18 04:01:39;;;;;;;41.20;18.00;;;;;;;;;;4962106;28;20070;-70
2021/12/18 04:04:04;;;;;;;53.13;17.23;;;;;;;;;;4964794;28;20039;-70
2021/12/18 04:06:31;;;;;;;46.08;18.02;;;;;;;;;;4949142;28;20033;-70
2021/12/18 04:08:56;;;;;;;44.65;16.75;;;;;;;;;;4965658;28;20031;-70
2021/12/18 04:11:22;;;;;;;42.55;17.33;;;;;;;;;;4969170;28;20433;-70
2021/12/18 04:13:47;;;;;;;44.85;17.95;;;;;;;;;;4961394;28;21464;-69
2021/12/18 04:16:13;;;;;;;44.72;16.95;;;;;;;;;;4963020;28;20061;-70
2021/12/18 04:18:39;;;;;;;40.35;17.17;;;;;;;;;;4963625;28;20042;-69
2021/12/18 04:21:04;;;;;;;40.53;17.20;;;;;;;;;;4961901;28;20046;-70
2021/12/18 04:23:30;;;;;;;46.67;18.65;;;;;;;;;;4969878;28;20031;-70
2021/12/18 04:25:56;;;;;;;42.85;18.52;;;;;;;;;;4968244;28;20549;-70
2021/12/18 04:28:22;;;;;;;47.13;18.23;;;;;;;;;;4965599;28;20114;-70
2021/12/18 04:30:47;;;;;;;57.00;16.50;;;;;;;;;;4964289;28;20449;-70
2021/12/18 04:33:12;;;;;;;35.83;15.27;;;;;;;;;;4964507;28;20470;-69
2021/12/18 04:35:38;;;;;;;57.67;17.83;;;;;;;;;;4964390;28;20089;-70
2021/12/18 04:38:03;;;;;;;48.97;16.48;;;;;;;;;;4964549;28;20034;-70
2021/12/18 04:40:28;;;;;;;42.75;17.25;;;;;;;;;;4948941;28;20046;-70
2021/12/18 04:42:54;;;;;;;35.83;16.23;;;;;;;;;;4964089;28;20035;-70
2021/12/18 04:45:19;;;;;;;46.88;17.00;;;;;;;;;;4969117;28;20096;-69
2021/12/18 04:47:44;;;;;;;80.68;17.45;;;;;;;;;;4964458;28;20028;-70
2021/12/18 04:50:10;;;;;;;54.90;15.18;;;;;;;;;;4965080;28;20058;-70
2021/12/18 04:52:35;;;;;;;57.78;16.42;;;;;;;;;;4964529;28;20059;-69
2021/12/18 04:55:01;;;;;;;59.45;16.27;;;;;;;;;;4968538;28;20034;-70
2021/12/18 04:57:26;;;;;;;87.80;16.83;;;;;;;;;;4965280;28;20493;-69
2021/12/18 04:59:51;;;;;;;95.95;17.38;;;;;;;;;;4968789;28;20118;-70
2021/12/18 05:02:20;;;;;;;75.93;16.60;;;;;;;;;;4966756;28;20041;-70
2021/12/18 05:04:46;;;;;;;134.68;19.90;;;;;;;;;;4963320;28;20464;-70
2021/12/18 05:07:11;;;;;;;71.57;18.23;;;;;;;;;;4968200;28;20065;-69
2021/12/18 05:09:38;;;;;;;108.97;17.52;;;;;;;;;;4964133;28;20030;-70
2021/12/18 05:12:03;;;;;;;35.40;15.43;;;;;;;;;;4964623;28;20148;-69
2021/12/18 05:14:29;;;;;;;46.28;16.23;;;;;;;;;;4963701;28;20443;-70
2021/12/18 05:16:54;;;;;;;48.80;16.65;;;;;;;;;;4963984;28;21234;-70
2021/12/18 05:19:20;;;;;;;37.35;16.17;;;;;;;;;;4963736;28;20077;-69
2021/12/18 05:21:46;;;;;;;43.00;17.80;;;;;;;;;;4962076;28;20053;-70
2021/12/18 05:24:11;;;;;;;62.97;16.08;;;;;;;;;;4963853;28;20019;-69
2021/12/18 05:26:36;;;;;;;101.35;18.58;;;;;;;;;;4963674;28;20034;-70
2021/12/18 05:29:02;;;;;;;65.80;14.93;;;;;;;;;;4964339;28;20035;-69
2021/12/18 05:31:27;;;;;;;43.10;16.92;;;;;;;;;;4963303;28;20034;-70
2021/12/18 05:33:57;;;;;;;40.20;14.98;;;;;;;;;;4963484;28;20027;-69
2021/12/18 05:36:35;;;;;;;41.25;16.15;;;;;;;;;;4963527;28;20062;-70
2021/12/18 05:39:05;;;;;;;42.00;15.43;;;;;;;;;;4963283;28;20043;-70
2021/12/18 05:41:31;;;;;;;105.78;15.68;;;;;;;;;;4963319;28;20129;-69
2021/12/18 05:43:56;;;;;;;99.35;17.33;;;;;;;;;;4964509;28;20762;-70
2021/12/18 05:46:21;;;;;;;77.47;15.85;;;;;;;;;;4964535;28;20031;-70
2021/12/18 05:48:47;;;;;;;149.57;16.90;;;;;;;;;;4963179;28;20635;-70
2021/12/18 05:51:12;;;;;;;202.13;16.63;;;;;;;;;;4977226;28;20397;-70
2021/12/18 05:53:37;;;;;;;105.38;15.73;;;;;;;;;;4960682;28;20506;-70
2021/12/18 05:56:03;;;;;;;72.47;16.10;;;;;;;;;;4961776;28;20041;-69
2021/12/18 05:58:28;;;;;;;121.05;15.23;;;;;;;;;;4961525;28;20023;-69
2021/12/18 06:00:53;;;;;;;290.45;18.50;;;;;;;;;;4960619;28;20561;-69
2021/12/18 06:03:19;;;;;;;68.82;16.85;;;;;;;;;;4960723;28;20699;-70
2021/12/18 06:05:44;;;;;;;45.20;14.85;;;;;;;;;;4960507;28;20058;-70
2021/12/18 06:08:12;;;;;;;175.27;16.92;;;;;;;;;;4960357;28;20436;-70
2021/12/18 06:10:37;;;;;;;151.60;15.88;;;;;;;;;;4961437;28;20062;-69
2021/12/18 06:13:03;;;;;;;81.32;16.90;;;;;;;;;;4975416;28;20130;-69
2021/12/18 06:15:29;;;;;;;126.35;15.27;;;;;;;;;;4960252;28;20090;-70
2021/12/18 06:17:55;;;;;;;49.40;15.13;;;;;;;;;;4961584;28;20035;-70
2021/12/18 06:20:21;;;;;;;40.88;13.65;;;;;;;;;;4961136;28;20110;-70
2021/12/18 06:22:46;;;;;;;124.25;13.32;;;;;;;;;;4961746;28;20489;-70
2021/12/18 06:25:11;;;;;;;200.32;15.18;;;;;;;;;;4962911;28;20034;-69
2021/12/18 06:27:37;;;;;;;78.57;16.52;;;;;;;;;;4963634;28;20693;-70
2021/12/18 06:30:03;;;;;;;87.38;15.18;;;;;;;;;;4962039;28;20125;-69
2021/12/18 06:32:28;;;;;;;67.75;14.70;;;;;;;;;;4961898;28;20066;-68
2021/12/18 06:34:53;;;;;;;49.47;14.25;;;;;;;;;;4962763;28;20034;-69
2021/12/18 06:37:19;;;;;;;63.10;14.57;;;;;;;;;;4962343;28;20122;-69
2021/12/18 06:39:44;;;;;;;110.55;14.55;;;;;;;;;;4963775;28;20118;-70
2021/12/18 06:42:09;;;;;;;40.30;13.93;;;;;;;;;;4962117;28;20113;-69
2021/12/18 06:44:35;;;;;;;140.73;14.15;;;;;;;;;;4961383;28;20026;-70
2021/12/18 06:47:00;;;;;;;63.28;13.38;;;;;;;;;;4959932;28;20038;-69
2021/12/18 06:49:25;;;;;;;82.53;14.00;;;;;;;;;;4961451;28;20031;-69
2021/12/18 06:51:51;;;;;;;77.07;12.05;;;;;;;;;;4960426;28;20107;-70
2021/12/18 06:54:16;;;;;;;94.93;13.32;;;;;;;;;;4960663;28;20034;-70
2021/12/18 06:56:42;;;;;;;53.63;13.52;;;;;;;;;;4961215;28;20041;-69
2021/12/18 06:59:07;;;;;;;51.83;13.07;;;;;;;;;;4960850;28;20038;-69
2021/12/18 07:01:32;;;;;;;32.88;12.25;;;;;;;;;;4959046;28;20043;-69
2021/12/18 07:03:58;;;;;;;34.67;12.35;;;;;;;;;;4964115;28;20030;-69
2021/12/18 07:06:23;;;;;;;80.88;12.65;;;;;;;;;;4961023;28;20045;-70
2021/12/18 07:08:48;;;;;;;68.55;11.30;;;;;;;;;;4961088;28;20027;-65
2021/12/18 07:11:14;;;;;;;56.40;13.27;;;;;;;;;;4962684;28;20501;-66
2021/12/18 07:13:39;;;;;;;64.63;11.52;;;;;;;;;;4966929;28;20035;-66
2021/12/18 07:16:05;;;;;;;27.23;11.27;;;;;;;;;;4962783;28;20038;-66
2021/12/18 07:18:30;;;;;;;56.90;12.40;;;;;;;;;;4964654;28;20038;-65
2021/12/18 07:20:56;;;;;;;29.65;12.30;;;;;;;;;;4963910;28;20430;-65
2021/12/18 07:23:21;;;;;;;35.83;12.70;;;;;;;;;;4965272;28;20037;-66
2021/12/18 07:25:47;;;;;;;36.67;12.95;;;;;;;;;;4963930;28;20110;-66
2021/12/18 07:28:12;;;;;;;25.80;11.05;;;;;;;;;;4964037;28;20086;-66
2021/12/18 07:30:37;;;;;;;63.15;12.15;;;;;;;;;;4967138;28;20494;-66
2021/12/18 07:33:09;;;;;;;32.67;12.20;;;;;;;;;;4962077;28;20130;-66
2021/12/18 07:35:35;;;;;;;40.25;13.60;;;;;;;;;;4964485;28;20057;-66
2021/12/18 07:38:00;;;;;;;53.50;13.15;;;;;;;;;;4965566;28;20030;-65
2021/12/18 07:40:25;;;;;;;33.33;12.00;;;;;;;;;;4962480;28;20042;-66
2021/12/18 07:42:51;;;;;;;29.92;12.02;;;;;;;;;;4963113;28;20042;-65
2021/12/18 07:45:16;;;;;;;35.35;13.18;;;;;;;;;;4963604;28;20030;-65
2021/12/18 07:47:42;;;;;;;65.03;12.57;;;;;;;;;;4964679;28;20039;-66
2021/12/18 07:50:12;;;;;;;30.35;12.82;;;;;;;;;;4966127;28;20026;-65
2021/12/18 07:52:37;;;;;;;35.20;13.25;;;;;;;;;;4965269;28;20035;-64
2021/12/18 07:55:03;;;;;;;28.63;12.20;;;;;;;;;;4964474;28;20063;-65
2021/12/18 07:57:29;;;;;;;35.60;13.18;;;;;;;;;;4966414;28;20046;-66
2021/12/18 07:59:54;;;;;;;62.92;13.13;;;;;;;;;;4966392;28;20573;-65
2021/12/18 08:02:19;;;;;;;41.72;12.73;;;;;;;;;;4965414;28;20042;-66
2021/12/18 08:04:45;;;;;;;90.93;14.05;;;;;;;;;;4964566;28;20402;-65
2021/12/18 08:07:10;;;;;;;29.50;12.55;;;;;;;;;;4965101;28;20493;-66
2021/12/18 08:09:35;;;;;;;47.10;12.68;;;;;;;;;;4967717;28;20037;-65
2021/12/18 08:12:01;;;;;;;34.35;13.23;;;;;;;;;;4965889;28;20058;-65
2021/12/18 08:14:26;;;;;;;40.10;13.55;;;;;;;;;;4969877;28;20027;-66
2021/12/18 08:16:51;;;;;;;23.52;11.73;;;;;;;;;;4966851;28;20065;-66
2021/12/18 08:19:17;;;;;;;26.20;11.60;;;;;;;;;;4968814;28;20026;-65
2021/12/18 08:21:42;;;;;;;68.32;12.93;;;;;;;;;;4967412;28;20426;-66
2021/12/18 08:24:07;;;;;;;31.50;11.50;;;;;;;;;;4965102;28;20508;-66
2021/12/18 08:26:33;;;;;;;22.83;11.82;;;;;;;;;;4963929;28;20525;-66
2021/12/18 08:28:58;;;;;;;63.38;13.32;;;;;;;;;;4981512;28;20432;-66
2021/12/18 08:31:23;;;;;;;33.10;11.63;;;;;;;;;;4963840;28;20042;-66
2021/12/18 08:33:49;;;;;;;29.48;13.18;;;;;;;;;;4967241;28;20031;-66
2021/12/18 08:36:14;;;;;;;37.53;12.63;;;;;;;;;;4967067;28;20027;-66
2021/12/18 08:38:40;;;;;;;43.60;13.02;;;;;;;;;;4963787;28;20093;-66
2021/12/18 08:41:05;;;;;;;38.03;12.75;;;;;;;;;;4966863;28;20050;-66
2021/12/18 08:43:31;;;;;;;40.55;12.38;;;;;;;;;;4964749;28;20256;-66
2021/12/18 08:45:56;;;;;;;33.00;12.15;;;;;;;;;;4963902;28;20058;-66
2021/12/18 08:48:21;;;;;;;23.35;12.02;;;;;;;;;;4961589;28;20182;-65
2021/12/18 08:50:47;;;;;;;29.90;13.30;;;;;;;;;;4963752;28;20038;-66
2021/12/18 08:53:12;;;;;;;29.98;12.50;;;;;;;;;;4965385;28;20109;-65
2021/12/18 08:55:38;;;;;;;23.75;11.55;;;;;;;;;;4965276;28;20130;-65
2021/12/18 08:58:03;;;;;;;28.27;12.05;;;;;;;;;;4964573;28;20043;-65
2021/12/18 09:00:30;;;;;;;23.60;10.88;;;;;;;;;;4963824;28;20066;-65
2021/12/18 09:02:57;;;;;;;25.27;10.90;;;;;;;;;;4963820;28;20037;-65
2021/12/18 09:05:23;;;;;;;48.53;11.48;;;;;;;;;;4965141;28;20234;-66
2021/12/18 09:07:48;;;;;;;23.10;11.27;;;;;;;;;;4963106;28;20100;-65
2021/12/18 09:10:14;;;;;;;43.20;11.07;;;;;;;;;;4965735;28;20022;-66
2021/12/18 09:12:40;;;;;;;21.33;10.55;;;;;;;;;;4959623;28;20030;-65
2021/12/18 09:15:06;;;;;;;68.88;11.10;;;;;;;;;;4963024;28;20097;-64
2021/12/18 09:17:31;;;;;;;56.85;11.05;;;;;;;;;;4960976;28;20039;-66
2021/12/18 09:19:56;;;;;;;29.33;10.77;;;;;;;;;;4964892;28;20038;-66
2021/12/18 09:22:22;;;;;;;34.80;10.88;;;;;;;;;;4962629;28;20122;-65
2021/12/18 09:24:47;;;;;;;34.92;9.63;;;;;;;;;;4966653;28;20019;-65
2021/12/18 09:27:15;;;;;;;41.28;10.25;;;;;;;;;;4965681;28;20026;-65
2021/12/18 09:29:40;;;;;;;50.38;11.07;;;;;;;;;;4963429;28;20034;-65
2021/12/18 09:32:06;;;;;;;30.35;10.52;;;;;;;;;;4963481;28;20039;-64
2021/12/18 09:34:33;;;;;;;29.15;10.90;;;;;;;;;;4965611;28;20053;-65
2021/12/18 09:36:58;;;;;;;27.05;11.63;;;;;;;;;;4964805;28;20026;-66
2021/12/18 09:39:24;;;;;;;32.33;11.30;;;;;;;;;;4964973;28;20046;-66
2021/12/18 09:41:49;;;;;;;18.95;9.77;;;;;;;;;;4963213;28;20019;-65
2021/12/18 09:44:23;;;;;;;25.67;10.40;;;;;;;;;;4962349;28;20019;-65
2021/12/18 09:46:49;;;;;;;30.17;10.50;;;;;;;;;;4962020;28;20039;-65
2021/12/18 09:49:14;;;;;;;48.35;10.65;;;;;;;;;;4963133;28;20038;-65
2021/12/18 09:51:39;;;;;;;33.45;11.07;;;;;;;;;;4963909;28;20027;-65
2021/12/18 09:54:05;;;;;;;25.02;11.50;;;;;;;;;;4944809;28;20139;-65
2021/12/18 09:56:30;;;;;;;20.02;9.63;;;;;;;;;;4961417;28;20026;-65
2021/12/18 09:58:55;;;;;;;23.33;10.52;;;;;;;;;;4962301;28;20091;-65
2021/12/18 10:01:21;;;;;;;17.10;9.10;;;;;;;;;;4959377;28;20035;-66
2021/12/18 10:03:53;;;;;;;20.08;10.07;;;;;;;;;;4961039;28;20031;-66
2021/12/18 10:06:47;;;;;;;17.10;9.43;;;;;;;;;;4961987;28;20055;-66
2021/12/18 10:09:21;;;;;;;20.02;9.93;;;;;;;;;;4947474;28;20042;-65
2021/12/18 10:12:00;;;;;;;26.85;9.48;;;;;;;;;;4964590;28;20031;-66
2021/12/18 10:14:42;;;;;;;16.92;8.98;;;;;;;;;;4965880;28;20085;-65
2021/12/18 10:17:33;;;;;;;19.08;9.73;;;;;;;;;;4964581;28;20101;-66
2021/12/18 10:20:10;;;;;;;18.23;8.98;;;;;;;;;;4969419;28;20073;-65
2021/12/18 10:22:56;;;;;;;22.02;10.43;;;;;;;;;;4970964;28;20026;-66
2021/12/18 10:25:27;;;;;;;19.40;9.77;;;;;;;;;;4967699;28;20030;-66
2021/12/18 10:28:01;;;;;;;19.02;9.07;;;;;;;;;;4966042;28;20034;-65
2021/12/18 10:30:26;;;;;;;18.77;9.80;;;;;;;;;;4961149;28;20077;-66
2021/12/18 10:33:02;;;;;;;18.60;9.35;;;;;;;;;;4961651;28;20034;-65
2021/12/18 10:35:47;;;;;;;21.42;9.90;;;;;;;;;;4962233;28;20034;-64
2021/12/18 10:38:34;;;;;;;19.15;9.43;;;;;;;;;;4961640;28;20030;-65
2021/12/18 10:40:59;;;;;;;18.52;9.13;;;;;;;;;;4960933;28;20030;-65
2021/12/18 10:43:24;;;;;;;18.67;9.27;;;;;;;;;;4961425;28;20023;-65
2021/12/18 10:45:50;;;;;;;14.57;9.07;;;;;;;;;;4962894;28;20065;-66
2021/12/18 10:48:16;;;;;;;17.27;9.13;;;;;;;;;;4973621;28;20410;-65
2021/12/18 10:50:48;;;;;;;15.80;9.43;;;;;;;;;;4961021;28;20055;-65
2021/12/18 10:53:18;;;;;;;21.58;10.13;;;;;;;;;;4961058;28;20122;-66
2021/12/18 10:55:51;;;;;;;27.85;9.10;;;;;;;;;;4964079;28;20477;-66
2021/12/18 10:58:30;;;;;;;17.20;8.98;;;;;;;;;;4964997;28;20073;-66
2021/12/18 11:00:58;;;;;;;16.92;9.90;;;;;;;;;;4964794;28;20069;-66
2021/12/18 11:03:37;;;;;;;16.75;9.23;;;;;;;;;;4961667;28;20058;-65
2021/12/18 11:06:27;;;;;;;16.73;8.65;;;;;;;;;;4963085;28;20034;-64
2021/12/18 11:09:06;;;;;;;18.08;9.25;;;;;;;;;;4956372;28;20043;-65
2021/12/18 11:14:10;;;;;;;15.68;8.05;;;;;;;;;;4962420;28;20035;-65
2021/12/18 11:16:36;;;;;;;13.98;8.35;;;;;;;;;;4964211;28;20441;-64
2021/12/18 11:19:11;;;;;;;14.45;8.38;;;;;;;;;;4964787;28;20024;-65
2021/12/18 11:21:37;;;;;;;15.20;8.30;;;;;;;;;;4963982;28;20464;-65
2021/12/18 11:24:07;;;;;;;14.45;8.80;;;;;;;;;;4968009;28;20098;-65
2021/12/18 11:26:41;;;;;;;15.70;9.05;;;;;;;;;;4969606;28;20019;-65
2021/12/18 11:29:13;;;;;;;15.43;8.75;;;;;;;;;;4970541;28;20026;-65
2021/12/18 11:31:40;;;;;;;17.80;8.93;;;;;;;;;;4967872;28;20034;-65
2021/12/18 11:34:06;;;;;;;16.73;9.50;;;;;;;;;;4968635;28;20041;-65
2021/12/18 11:36:31;;;;;;;20.05;9.57;;;;;;;;;;4968229;28;20034;-65
2021/12/18 11:38:56;;;;;;;17.85;9.48;;;;;;;;;;4972455;28;20030;-65
2021/12/18 11:41:22;;;;;;;18.88;10.05;;;;;;;;;;4969954;28;21188;-65
2021/12/18 11:43:47;;;;;;;17.95;9.48;;;;;;;;;;4967090;28;20081;-65
2021/12/18 11:46:31;;;;;;;20.60;10.23;;;;;;;;;;4966951;28;20031;-65
2021/12/18 11:49:01;;;;;;;18.83;9.90;;;;;;;;;;4970630;28;20100;-65
2021/12/18 11:51:31;;;;;;;19.38;10.13;;;;;;;;;;4969740;28;20105;-65
2021/12/18 11:53:56;;;;;;;20.63;9.07;;;;;;;;;;4968295;28;20022;-65
2021/12/18 11:56:22;;;;;;;17.30;9.32;;;;;;;;;;4963999;28;20531;-65
2021/12/18 11:58:48;;;;;;;20.17;11.27;;;;;;;;;;4972215;28;20417;-65
2021/12/18 12:01:25;;;;;;;25.10;10.77;;;;;;;;;;4969675;28;20054;-64
2021/12/18 12:03:50;;;;;;;19.27;9.48;;;;;;;;;;4971807;28;20386;-65
2021/12/18 12:06:24;;;;;;;21.80;10.50;;;;;;;;;;4967449;28;20031;-65
2021/12/18 12:08:52;;;;;;;14.43;8.73;;;;;;;;;;4968762;28;20038;-65
2021/12/18 12:11:27;;;;;;;19.42;8.68;;;;;;;;;;4969836;28;20050;-64
2021/12/18 12:13:55;;;;;;;23.52;9.80;;;;;;;;;;4974686;28;20038;-65
2021/12/18 12:16:42;;;;;;;13.07;7.53;;;;;;;;;;4982752;28;20474;-65
2021/12/18 12:19:07;;;;;;;12.55;7.85;;;;;;;;;;4972499;28;20418;-64
2021/12/18 12:21:55;;;;;;;17.00;8.63;;;;;;;;;;4973088;28;20058;-65
2021/12/18 12:24:28;;;;;;;14.50;8.27;;;;;;;;;;4965824;28;20014;-64
2021/12/18 12:26:53;;;;;;;14.60;7.95;;;;;;;;;;4964347;28;20471;-64
2021/12/18 12:29:19;;;;;;;17.55;8.80;;;;;;;;;;4964512;28;20106;-64
2021/12/18 12:32:01;;;;;;;14.10;8.88;;;;;;;;;;4964230;28;20031;-64
2021/12/18 12:34:33;;;;;;;18.67;8.40;;;;;;;;;;4966258;28;20039;-65
2021/12/18 12:37:17;;;;;;;13.00;7.88;;;;;;;;;;4965386;28;20034;-68
2021/12/18 12:39:57;;;;;;;14.68;8.10;;;;;;;;;;4964470;28;20078;-68
2021/12/18 12:42:23;;;;;;;13.43;8.07;;;;;;;;;;4963744;28;20058;-68
2021/12/18 12:45:00;;;;;;;12.07;7.90;;;;;;;;;;4965562;28;20114;-68
2021/12/18 12:47:27;;;;;;;13.95;7.82;;;;;;;;;;4964416;28;20035;-68
2021/12/18 12:49:55;;;;;;;12.38;7.65;;;;;;;;;;4964013;28;20041;-68
2021/12/18 12:52:22;;;;;;;12.77;7.72;;;;;;;;;;4962616;28;20166;-68
2021/12/18 12:55:03;;;;;;;13.40;7.15;;;;;;;;;;4963786;28;20039;-68
2021/12/18 12:57:30;;;;;;;14.73;7.95;;;;;;;;;;4964176;28;20486;-68
2021/12/18 12:59:58;;;;;;;13.80;7.85;;;;;;;;;;4964039;28;20039;-68
2021/12/18 13:02:27;;;;;;;11.75;7.70;;;;;;;;;;4963531;28;20573;-68
2021/12/18 13:05:06;;;;;;;14.07;8.10;;;;;;;;;;4964174;28;20042;-68
2021/12/18 13:07:32;;;;;;;15.10;8.50;;;;;;;;;;4963703;28;20487;-68
2021/12/18 13:09:57;;;;;;;14.85;8.35;;;;;;;;;;4965039;28;20199;-68
2021/12/18 13:12:22;;;;;;;13.15;7.65;;;;;;;;;;4964838;28;20057;-68
2021/12/18 13:14:48;;;;;;;15.63;9.10;;;;;;;;;;4968639;28;20058;-68
2021/12/18 13:17:16;;;;;;;13.18;8.40;;;;;;;;;;4963777;28;20046;-68
2021/12/18 13:19:54;;;;;;;12.85;8.13;;;;;;;;;;4964338;28;20034;-68
2021/12/18 13:22:21;;;;;;;14.15;7.97;;;;;;;;;;4963392;28;20034;-68
2021/12/18 13:25:06;;;;;;;15.48;8.55;;;;;;;;;;4979182;28;20042;-68
2021/12/18 13:27:32;;;;;;;;;;;;;;;;;;4964158;28;20108;-68
2021/12/18 13:30:12;;;;;;;14.98;8.25;;;;;;;;;;4963326;28;19957;-68
2021/12/18 13:32:37;;;;;;;20.08;8.88;;;;;;;;;;4962221;28;20596;-68
2021/12/18 13:35:13;;;;;;;17.10;9.52;;;;;;;;;;4963279;28;20038;-68
2021/12/18 13:37:38;;;;;;;15.75;9.05;;;;;;;;;;4964243;28;20487;-68
2021/12/18 13:40:04;;;;;;;16.10;8.38;;;;;;;;;;4967841;28;20049;-68
2021/12/18 13:42:29;;;;;;;19.33;8.65;;;;;;;;;;4945564;28;20348;-68
2021/12/18 13:44:57;;;;;;;19.33;11.75;;;;;;;;;;4963369;28;20027;-68
2021/12/18 13:47:35;;;;;;;21.13;10.70;;;;;;;;;;4962346;28;20057;-68
2021/12/18 13:50:17;;;;;;;18.17;10.10;;;;;;;;;;4964000;28;20534;-68
2021/12/18 13:53:05;;;;;;;16.60;9.00;;;;;;;;;;4976569;28;20035;-68
2021/12/18 13:55:43;;;;;;;15.93;8.90;;;;;;;;;;4958815;28;20042;-68
2021/12/18 13:58:09;;;;;;;15.18;8.00;;;;;;;;;;4965176;28;20030;-68
2021/12/18 14:00:44;;;;;;;15.93;9.13;;;;;;;;;;4963519;28;20441;-68
2021/12/18 14:03:17;;;;;;;16.70;9.55;;;;;;;;;;4963769;28;20022;-68
2021/12/18 14:05:42;;;;;;;18.42;9.95;;;;;;;;;;4963552;28;20035;-68
2021/12/18 14:08:07;;;;;;;20.13;9.90;;;;;;;;;;4968983;28;20035;-69
2021/12/18 14:10:33;;;;;;;17.50;9.43;;;;;;;;;;4962802;28;20031;-68
2021/12/18 14:12:59;;;;;;;17.55;9.80;;;;;;;;;;4964378;28;20031;-68
2021/12/18 14:15:24;;;;;;;19.58;9.85;;;;;;;;;;4961921;28;20042;-68
2021/12/18 14:17:49;;;;;;;18.08;10.40;;;;;;;;;;4963589;28;20149;-67
2021/12/18 14:20:15;;;;;;;16.02;8.93;;;;;;;;;;4962593;28;20118;-68
2021/12/18 14:22:41;;;;;;;16.05;9.05;;;;;;;;;;4963204;28;20121;-67
2021/12/18 14:25:14;;;;;;;18.35;10.57;;;;;;;;;;4962055;28;20136;-70
2021/12/18 14:27:43;;;;;;;17.10;9.45;;;;;;;;;;4963746;28;20078;-67
2021/12/18 14:30:21;;;;;;;17.50;10.20;;;;;;;;;;4960110;28;20072;-69
2021/12/18 14:32:47;;;;;;;20.38;9.48;;;;;;;;;;4961095;28;20382;-69
2021/12/18 14:35:14;;;;;;;16.95;9.15;;;;;;;;;;4959659;28;20038;-68
2021/12/18 14:37:59;;;;;;;20.23;9.73;;;;;;;;;;4962681;28;20050;-68
2021/12/18 14:40:26;;;;;;;19.10;9.40;;;;;;;;;;4961000;28;20048;-68
2021/12/18 14:43:05;;;;;;;21.17;9.60;;;;;;;;;;4961960;28;20139;-68
2021/12/18 14:45:31;;;;;;;17.02;9.20;;;;;;;;;;4951026;28;20030;-68
2021/12/18 14:48:01;;;;;;;18.35;9.00;;;;;;;;;;4979621;28;20117;-68
2021/12/18 14:50:30;;;;;;;18.83;9.40;;;;;;;;;;4961567;28;20085;-69
2021/12/18 14:53:10;;;;;;;18.75;9.88;;;;;;;;;;4963136;28;20019;-68
2021/12/18 14:55:42;;;;;;;18.02;9.27;;;;;;;;;;4963054;28;20057;-68
2021/12/18 14:58:36;;;;;;;19.98;10.02;;;;;;;;;;4965975;28;20473;-69
2021/12/18 15:01:02;;;;;;;16.27;9.32;;;;;;;;;;4969085;28;20042;-69
2021/12/18 15:03:35;;;;;;;17.27;8.32;;;;;;;;;;4966897;28;20035;-68
2021/12/18 15:06:08;;;;;;;18.73;10.00;;;;;;;;;;4965996;28;20466;-67
2021/12/18 15:08:47;;;;;;;19.55;9.82;;;;;;;;;;4969192;28;20893;-68